Valley Falls, New York
Current Conditions -  °F | °C
As of 10:54 AM on Friday 24 Oct 2014 (Local Time) from KDDH Reporting Station
Overcast Overcast  
Wind Chill: 41°   Ceiling: 1300
Heat Index: 45°   Visibility: 10mi
Dew Point: 40°   Wind: 8mph
Humidity: 82%   Direction: 330°NNW
Pressure: 29.83"   Gusts: NA
Location:  42.9°N, 73.56°W
Report Text: KDDH 241454Z AUTO 33007KT 10SM OVC013 07/04 A2983 RMK AO2 SLP104 T00720044 50005
Loading
Personal Weather Stations






























Interactive Weather Map
Tropical Storm Tracking
New forecast layout! Learn more

10-Day Weather Forecast

Advertisements
Track Severe Weather on mobile